createdAt,value
2022-09-15T00:04:15.202Z,76.98
2022-09-15T00:09:16.482Z,76.93
2022-09-15T00:14:18.066Z,76.86
2022-09-15T00:19:19.352Z,77.04
2022-09-15T00:24:20.693Z,77.01
2022-09-15T00:29:22.246Z,76.91
2022-09-15T00:34:23.547Z,76.80
2022-09-15T00:39:24.918Z,76.85
2022-09-15T00:44:35.421Z,76.99
2022-09-15T00:49:37.951Z,77.07
2022-09-15T00:54:42.114Z,77.00
2022-09-15T00:59:44.261Z,77.06
2022-09-15T01:04:45.721Z,77.08
2022-09-15T01:09:56.004Z,76.97
2022-09-15T01:14:59.722Z,77.00
2022-09-15T01:20:24.654Z,77.27
2022-09-15T01:25:46.938Z,77.13
2022-09-15T01:31:03.670Z,77.20
2022-09-15T01:36:13.064Z,77.07
2022-09-15T01:41:25.656Z,77.12
2022-09-15T01:46:30.549Z,76.99
2022-09-15T01:51:33.269Z,77.12
2022-09-15T01:56:36.401Z,77.07
2022-09-15T02:01:51.591Z,77.15
2022-09-15T02:07:15.130Z,77.15
2022-09-15T02:12:19.857Z,77.54
2022-09-15T02:17:22.000Z,77.23
2022-09-15T02:22:27.600Z,76.90
2022-09-15T02:27:31.565Z,77.06
2022-09-15T02:32:34.914Z,77.11
2022-09-15T02:37:36.877Z,77.39
2022-09-15T02:42:39.257Z,77.49
2022-09-15T02:47:40.733Z,77.43
2022-09-15T02:52:42.121Z,77.64
2022-09-15T02:57:43.454Z,77.63
2022-09-15T03:02:46.418Z,77.55
2022-09-15T03:07:47.717Z,77.66
2022-09-15T03:12:50.598Z,77.52
2022-09-15T03:17:52.334Z,77.27
2022-09-15T03:22:54.290Z,77.33
2022-09-15T03:27:55.594Z,77.31
2022-09-15T03:32:57.597Z,77.24
2022-09-15T03:37:58.866Z,77.24
2022-09-15T03:43:00.162Z,77.30
2022-09-15T03:48:01.707Z,77.30
2022-09-15T03:53:03.372Z,77.38
2022-09-15T03:58:04.705Z,77.30
2022-09-15T04:03:06.701Z,77.40
2022-09-15T04:08:10.956Z,77.29
2022-09-15T04:13:12.286Z,77.27
2022-09-15T04:18:13.590Z,77.22
2022-09-15T04:23:14.852Z,77.15
2022-09-15T04:28:16.282Z,77.26
2022-09-15T04:33:17.569Z,77.45
2022-09-15T04:38:18.840Z,77.39
2022-09-15T04:43:20.222Z,77.46
2022-09-15T04:48:21.934Z,77.38
2022-09-15T04:53:23.236Z,77.33
2022-09-15T04:58:26.216Z,77.43
2022-09-15T05:03:27.563Z,77.43
2022-09-15T05:08:28.977Z,77.50
2022-09-15T05:13:30.309Z,77.38
2022-09-15T05:18:31.849Z,77.45
2022-09-15T05:23:33.702Z,77.52
2022-09-15T05:28:35.860Z,77.26
2022-09-15T05:33:37.625Z,77.51
2022-09-15T05:38:38.915Z,77.49
2022-09-15T05:43:40.233Z,77.65
2022-09-15T05:48:41.993Z,77.67
2022-09-15T05:53:43.345Z,77.86
2022-09-15T05:58:45.519Z,77.69
2022-09-15T06:03:47.207Z,77.74
2022-09-15T06:08:53.046Z,77.69
2022-09-15T06:14:00.848Z,77.77
2022-09-15T06:19:02.157Z,77.76
2022-09-15T06:24:04.369Z,77.74
2022-09-15T06:29:05.956Z,77.92
2022-09-15T06:34:08.552Z,77.96
2022-09-15T06:39:10.078Z,77.74
2022-09-15T06:44:11.502Z,77.89
2022-09-15T06:49:12.865Z,77.90
2022-09-15T06:54:16.054Z,77.78
2022-09-15T06:59:17.337Z,77.91
2022-09-15T07:04:19.805Z,77.68
2022-09-15T07:09:21.080Z,77.81
2022-09-15T07:14:22.388Z,77.63
2022-09-15T07:19:23.705Z,77.56
2022-09-15T07:24:25.273Z,77.51
2022-09-15T07:29:26.582Z,77.29
2022-09-15T07:34:27.872Z,76.92
2022-09-15T07:39:29.169Z,76.64
2022-09-15T07:44:30.492Z,76.41
2022-09-15T07:49:32.103Z,76.30
2022-09-15T07:54:33.520Z,76.01
2022-09-15T07:59:39.343Z,76.11
2022-09-15T08:04:42.449Z,76.15
2022-09-15T08:09:43.773Z,75.44
2022-09-15T08:14:45.053Z,74.91
2022-09-15T08:19:46.803Z,74.04
2022-09-15T08:24:48.564Z,73.43
2022-09-15T08:29:49.880Z,73.32
2022-09-15T08:34:51.174Z,73.65
2022-09-15T08:39:52.501Z,73.83
2022-09-15T08:44:56.547Z,73.67
2022-09-15T08:50:16.722Z,73.81
2022-09-15T08:55:27.772Z,74.08
2022-09-15T09:00:29.654Z,73.38
2022-09-15T09:05:34.293Z,72.88
2022-09-15T09:10:43.986Z,73.06
2022-09-15T09:16:04.360Z,73.06
2022-09-15T09:21:05.786Z,72.79
2022-09-15T09:26:11.156Z,72.48
2022-09-15T09:31:18.095Z,72.67
2022-09-15T09:36:19.650Z,72.34
2022-09-15T09:41:25.368Z,72.03
2022-09-15T09:46:26.702Z,72.06
2022-09-15T09:51:48.625Z,72.54
2022-09-15T09:56:50.569Z,71.74
2022-09-15T10:02:05.894Z,70.86
2022-09-15T10:07:07.557Z,70.74
2022-09-15T10:12:18.509Z,71.07
2022-09-15T10:17:22.164Z,71.35
2022-09-15T10:22:26.084Z,70.98
2022-09-15T10:27:30.374Z,71.08
2022-09-15T10:32:31.683Z,70.63
2022-09-15T10:37:51.795Z,70.68
2022-09-15T10:42:56.823Z,70.72
2022-09-15T10:48:13.467Z,70.36
2022-09-15T10:53:23.991Z,69.86
2022-09-15T10:58:25.240Z,69.83
2022-09-15T11:03:26.535Z,70.38
2022-09-15T11:08:42.353Z,70.50
2022-09-15T11:13:51.149Z,70.68
2022-09-15T11:19:11.502Z,70.33
2022-09-15T11:24:23.759Z,69.98
2022-09-15T11:29:28.080Z,69.86
2022-09-15T11:34:51.520Z,69.56
2022-09-15T11:39:56.682Z,69.83
2022-09-15T11:44:59.282Z,68.88
2022-09-15T11:50:03.293Z,68.64
2022-09-15T11:55:13.963Z,68.38
2022-09-15T12:00:16.465Z,68.09
2022-09-15T12:05:26.637Z,67.59
2022-09-15T12:10:34.644Z,67.45
2022-09-15T12:15:37.180Z,66.64
2022-09-15T12:20:48.414Z,66.54
2022-09-15T12:26:05.209Z,66.13
2022-09-15T12:31:25.510Z,66.14
2022-09-15T12:36:36.597Z,66.27
2022-09-15T12:41:45.676Z,66.18
2022-09-15T12:46:54.984Z,66.10
2022-09-15T12:51:56.963Z,65.42
2022-09-15T12:56:58.993Z,64.49
2022-09-15T13:02:01.907Z,64.47
2022-09-15T13:07:15.314Z,64.56
2022-09-15T13:12:18.817Z,64.56
2022-09-15T13:17:22.560Z,64.60
2022-09-15T13:22:39.934Z,63.89
2022-09-15T13:27:49.619Z,64.34
2022-09-15T13:32:57.349Z,64.87
2022-09-15T13:38:21.254Z,65.19
2022-09-15T13:43:53.532Z,65.35
2022-09-15T13:49:03.771Z,65.09
2022-09-15T13:54:06.717Z,64.32
2022-09-15T13:59:16.803Z,65.28
2022-09-15T14:04:26.053Z,66.11
2022-09-15T14:09:29.849Z,66.62
2022-09-15T14:14:34.104Z,66.39
2022-09-15T14:19:37.104Z,66.74
2022-09-15T14:24:39.994Z,66.83
2022-09-15T14:29:42.794Z,67.12
2022-09-15T14:34:44.639Z,66.76
2022-09-15T14:39:55.956Z,66.56
2022-09-15T14:50:38.811Z,66.99
2022-09-15T14:55:40.062Z,67.15
2022-09-15T15:00:50.737Z,66.77
2022-09-15T15:06:02.676Z,66.97
2022-09-15T15:11:06.592Z,67.07
2022-09-15T15:16:13.796Z,67.08
2022-09-15T15:21:33.570Z,67.25
2022-09-15T15:26:39.231Z,67.54
2022-09-15T15:31:40.581Z,67.07
2022-09-15T15:36:41.949Z,67.25
2022-09-15T15:41:43.257Z,67.08
2022-09-15T15:46:44.569Z,67.15
2022-09-15T15:51:45.871Z,66.89
2022-09-15T15:56:47.638Z,66.92
2022-09-15T16:01:51.273Z,66.76
2022-09-15T16:06:52.849Z,66.87
2022-09-15T16:11:54.279Z,66.80
2022-09-15T16:16:57.977Z,66.66
2022-09-15T16:22:00.873Z,66.92
2022-09-15T16:27:04.381Z,67.04
2022-09-15T16:32:06.106Z,67.44
2022-09-15T16:37:07.398Z,67.54
2022-09-15T16:42:09.587Z,67.53
2022-09-15T16:47:10.964Z,67.81
2022-09-15T16:52:13.457Z,68.18
2022-09-15T16:57:14.785Z,68.15
2022-09-15T17:02:16.177Z,68.35
2022-09-15T17:07:18.284Z,68.52
2022-09-15T17:12:20.655Z,68.25
2022-09-15T17:17:23.205Z,68.07
2022-09-15T17:22:24.574Z,67.80
2022-09-15T17:27:25.849Z,68.11
2022-09-15T17:32:29.660Z,68.00
2022-09-15T17:37:32.971Z,67.42
2022-09-15T17:42:34.254Z,67.58
2022-09-15T17:47:37.005Z,67.37
2022-09-15T17:52:38.357Z,67.42
2022-09-15T17:57:39.841Z,67.49
2022-09-15T18:02:42.208Z,67.77
2022-09-15T18:07:43.554Z,67.95
2022-09-15T18:12:47.373Z,67.96
2022-09-15T18:17:51.397Z,67.98
2022-09-15T18:22:53.156Z,67.94
2022-09-15T18:27:54.777Z,67.83
2022-09-15T18:32:56.516Z,67.59
2022-09-15T18:37:58.621Z,67.36
2022-09-15T18:42:59.986Z,67.22
2022-09-15T18:48:01.414Z,67.05
2022-09-15T18:53:02.734Z,67.17
2022-09-15T18:58:04.001Z,67.21
2022-09-15T19:03:06.223Z,67.51
2022-09-15T19:08:09.016Z,67.50
2022-09-15T19:13:12.055Z,67.08
2022-09-15T19:18:13.593Z,67.32
2022-09-15T19:23:15.830Z,67.12
2022-09-15T19:28:17.202Z,66.88
2022-09-15T19:33:18.492Z,66.75
2022-09-15T19:38:19.825Z,66.68
2022-09-15T19:43:21.089Z,66.56
2022-09-15T19:48:22.383Z,66.71
2022-09-15T19:53:23.921Z,66.52
2022-09-15T19:58:25.263Z,66.73
2022-09-15T20:03:27.154Z,66.74
2022-09-15T20:08:28.556Z,66.71
2022-09-15T20:13:30.077Z,66.60
2022-09-15T20:18:33.382Z,66.82
2022-09-15T20:23:35.024Z,66.76
2022-09-15T20:28:36.387Z,66.73
2022-09-15T20:33:39.545Z,66.70
2022-09-15T20:38:41.760Z,66.64
2022-09-15T20:43:43.426Z,66.40
2022-09-15T20:48:45.233Z,66.40
2022-09-15T20:53:48.624Z,66.35
2022-09-15T20:58:50.330Z,66.13
2022-09-15T21:03:52.078Z,66.25
2022-09-15T21:08:54.695Z,66.13
2022-09-15T21:13:56.905Z,66.45
2022-09-15T21:18:58.530Z,67.11
2022-09-15T21:24:03.535Z,67.86
2022-09-15T21:29:04.817Z,68.00
2022-09-15T21:34:06.100Z,68.06
2022-09-15T21:39:07.395Z,68.33
2022-09-15T21:44:09.233Z,68.26
2022-09-15T21:49:10.581Z,68.29
2022-09-15T21:54:11.916Z,68.33
2022-09-15T21:59:13.298Z,68.53
2022-09-15T22:04:14.877Z,68.28
2022-09-15T22:09:17.806Z,68.49
2022-09-15T22:14:19.139Z,68.46
2022-09-15T22:19:20.536Z,68.47
2022-09-15T22:24:21.807Z,68.30
2022-09-15T22:29:23.149Z,67.92
2022-09-15T22:34:24.426Z,68.18
2022-09-15T22:39:43.903Z,68.04
2022-09-15T22:44:47.095Z,67.69
2022-09-15T22:49:48.361Z,67.82
2022-09-15T22:54:49.685Z,67.68
2022-09-15T22:59:50.983Z,67.51
2022-09-15T23:04:53.994Z,67.65
2022-09-15T23:09:55.293Z,67.90
2022-09-15T23:14:56.671Z,68.08
2022-09-15T23:19:57.983Z,67.76
2022-09-15T23:24:59.290Z,67.73
2022-09-15T23:30:00.572Z,67.87
2022-09-15T23:35:01.870Z,67.30
2022-09-15T23:40:03.359Z,67.05
2022-09-15T23:45:04.995Z,66.88
2022-09-15T23:50:06.456Z,67.28
2022-09-15T23:55:08.010Z,67.35
